sensor_id;sensor_type;location;lat;lon;timestamp;P1;durP1;ratioP1;P2;durP2;ratioP2
35444;SDS011;21562;49.476;6.086;2023-12-20T00:00:13;0.70;;;0.47;;
35444;SDS011;21562;49.476;6.086;2023-12-20T00:02:39;1.13;;;0.30;;
35444;SDS011;21562;49.476;6.086;2023-12-20T00:05:04;0.32;;;0.30;;
35444;SDS011;21562;49.476;6.086;2023-12-20T00:07:31;0.52;;;0.38;;
35444;SDS011;21562;49.476;6.086;2023-12-20T00:09:56;0.98;;;0.50;;
35444;SDS011;21562;49.476;6.086;2023-12-20T00:12:22;1.67;;;0.80;;
35444;SDS011;21562;49.476;6.086;2023-12-20T00:14:48;1.13;;;0.70;;
35444;SDS011;21562;49.476;6.086;2023-12-20T00:17:13;1.67;;;0.63;;
35444;SDS011;21562;49.476;6.086;2023-12-20T00:19:39;0.70;;;0.60;;
35444;SDS011;21562;49.476;6.086;2023-12-20T00:22:05;1.08;;;0.60;;
35444;SDS011;21562;49.476;6.086;2023-12-20T00:24:30;0.65;;;0.55;;
35444;SDS011;21562;49.476;6.086;2023-12-20T00:26:56;1.05;;;0.73;;
35444;SDS011;21562;49.476;6.086;2023-12-20T00:29:22;1.23;;;0.80;;
35444;SDS011;21562;49.476;6.086;2023-12-20T00:31:47;1.17;;;0.60;;
35444;SDS011;21562;49.476;6.086;2023-12-20T00:34:13;1.35;;;0.80;;
35444;SDS011;21562;49.476;6.086;2023-12-20T00:36:39;0.80;;;0.70;;
35444;SDS011;21562;49.476;6.086;2023-12-20T00:39:04;0.90;;;0.77;;
35444;SDS011;21562;49.476;6.086;2023-12-20T00:41:31;2.17;;;0.80;;
35444;SDS011;21562;49.476;6.086;2023-12-20T00:43:57;1.05;;;0.80;;
35444;SDS011;21562;49.476;6.086;2023-12-20T00:46:23;1.00;;;0.85;;
35444;SDS011;21562;49.476;6.086;2023-12-20T00:48:48;0.73;;;0.70;;
35444;SDS011;21562;49.476;6.086;2023-12-20T00:51:14;1.70;;;0.63;;
35444;SDS011;21562;49.476;6.086;2023-12-20T00:53:39;1.45;;;0.65;;
35444;SDS011;21562;49.476;6.086;2023-12-20T00:56:05;1.67;;;1.02;;
35444;SDS011;21562;49.476;6.086;2023-12-20T00:58:31;1.17;;;0.90;;
35444;SDS011;21562;49.476;6.086;2023-12-20T01:00:57;1.70;;;1.02;;
35444;SDS011;21562;49.476;6.086;2023-12-20T01:03:23;1.10;;;1.00;;
35444;SDS011;21562;49.476;6.086;2023-12-20T01:05:49;1.95;;;1.10;;
35444;SDS011;21562;49.476;6.086;2023-12-20T01:08:14;1.88;;;1.27;;
35444;SDS011;21562;49.476;6.086;2023-12-20T01:10:40;2.10;;;1.40;;
35444;SDS011;21562;49.476;6.086;2023-12-20T01:13:05;1.50;;;1.20;;
35444;SDS011;21562;49.476;6.086;2023-12-20T01:15:31;1.63;;;1.30;;
35444;SDS011;21562;49.476;6.086;2023-12-20T01:17:57;1.80;;;1.30;;
35444;SDS011;21562;49.476;6.086;2023-12-20T01:20:24;1.95;;;1.25;;
35444;SDS011;21562;49.476;6.086;2023-12-20T01:22:50;2.35;;;1.73;;
35444;SDS011;21562;49.476;6.086;2023-12-20T01:25:16;1.80;;;1.50;;
35444;SDS011;21562;49.476;6.086;2023-12-20T01:27:41;2.58;;;1.60;;
35444;SDS011;21562;49.476;6.086;2023-12-20T01:30:07;2.17;;;1.55;;
35444;SDS011;21562;49.476;6.086;2023-12-20T01:32:33;1.67;;;1.50;;
35444;SDS011;21562;49.476;6.086;2023-12-20T01:34:59;1.95;;;1.50;;
35444;SDS011;21562;49.476;6.086;2023-12-20T01:37:25;1.90;;;1.70;;
35444;SDS011;21562;49.476;6.086;2023-12-20T01:39:51;1.58;;;1.40;;
35444;SDS011;21562;49.476;6.086;2023-12-20T01:42:18;4.20;;;2.00;;
35444;SDS011;21562;49.476;6.086;2023-12-20T01:44:43;2.90;;;2.20;;
35444;SDS011;21562;49.476;6.086;2023-12-20T01:47:09;4.35;;;2.47;;
35444;SDS011;21562;49.476;6.086;2023-12-20T01:49:35;2.70;;;2.10;;
35444;SDS011;21562;49.476;6.086;2023-12-20T01:52:01;2.35;;;2.00;;
35444;SDS011;21562;49.476;6.086;2023-12-20T01:54:27;3.00;;;2.30;;
35444;SDS011;21562;49.476;6.086;2023-12-20T01:56:52;3.10;;;2.10;;
35444;SDS011;21562;49.476;6.086;2023-12-20T01:59:18;3.55;;;2.70;;
35444;SDS011;21562;49.476;6.086;2023-12-20T02:01:46;3.08;;;2.28;;
35444;SDS011;21562;49.476;6.086;2023-12-20T02:04:11;2.63;;;2.20;;
35444;SDS011;21562;49.476;6.086;2023-12-20T02:06:37;3.03;;;2.08;;
35444;SDS011;21562;49.476;6.086;2023-12-20T02:09:05;3.95;;;2.80;;
35444;SDS011;21562;49.476;6.086;2023-12-20T02:11:32;3.50;;;2.70;;
35444;SDS011;21562;49.476;6.086;2023-12-20T02:13:58;4.65;;;3.08;;
35444;SDS011;21562;49.476;6.086;2023-12-20T02:16:24;5.22;;;3.20;;
35444;SDS011;21562;49.476;6.086;2023-12-20T02:18:50;4.50;;;3.20;;
35444;SDS011;21562;49.476;6.086;2023-12-20T02:21:15;4.80;;;3.17;;
35444;SDS011;21562;49.476;6.086;2023-12-20T02:23:41;3.47;;;2.55;;
35444;SDS011;21562;49.476;6.086;2023-12-20T02:26:07;4.13;;;3.15;;
35444;SDS011;21562;49.476;6.086;2023-12-20T02:28:32;4.15;;;3.05;;
35444;SDS011;21562;49.476;6.086;2023-12-20T02:30:59;5.93;;;3.35;;
35444;SDS011;21562;49.476;6.086;2023-12-20T02:33:25;4.07;;;3.28;;
35444;SDS011;21562;49.476;6.086;2023-12-20T02:35:50;5.80;;;3.17;;
35444;SDS011;21562;49.476;6.086;2023-12-20T02:38:17;6.63;;;3.20;;
35444;SDS011;21562;49.476;6.086;2023-12-20T02:40:43;4.18;;;3.28;;
35444;SDS011;21562;49.476;6.086;2023-12-20T02:43:08;5.40;;;3.25;;
35444;SDS011;21562;49.476;6.086;2023-12-20T02:45:34;4.65;;;2.95;;
35444;SDS011;21562;49.476;6.086;2023-12-20T02:48:00;5.90;;;3.35;;
35444;SDS011;21562;49.476;6.086;2023-12-20T02:50:25;6.32;;;3.38;;
35444;SDS011;21562;49.476;6.086;2023-12-20T02:52:51;4.30;;;2.72;;
35444;SDS011;21562;49.476;6.086;2023-12-20T02:55:17;6.03;;;3.80;;
35444;SDS011;21562;49.476;6.086;2023-12-20T02:57:42;5.93;;;3.85;;
35444;SDS011;21562;49.476;6.086;2023-12-20T03:00:08;5.65;;;3.53;;
35444;SDS011;21562;49.476;6.086;2023-12-20T03:02:35;5.95;;;3.33;;
35444;SDS011;21562;49.476;6.086;2023-12-20T03:05:01;4.10;;;2.80;;
35444;SDS011;21562;49.476;6.086;2023-12-20T03:07:27;10.63;;;3.40;;
35444;SDS011;21562;49.476;6.086;2023-12-20T03:09:53;6.75;;;3.38;;
35444;SDS011;21562;49.476;6.086;2023-12-20T03:12:18;5.13;;;3.20;;
35444;SDS011;21562;49.476;6.086;2023-12-20T03:14:44;6.60;;;2.78;;
35444;SDS011;21562;49.476;6.086;2023-12-20T03:17:10;6.68;;;3.05;;
35444;SDS011;21562;49.476;6.086;2023-12-20T03:19:36;6.35;;;3.58;;
35444;SDS011;21562;49.476;6.086;2023-12-20T03:22:01;6.97;;;3.28;;
35444;SDS011;21562;49.476;6.086;2023-12-20T03:24:27;5.93;;;2.83;;
35444;SDS011;21562;49.476;6.086;2023-12-20T03:26:53;9.35;;;3.08;;
35444;SDS011;21562;49.476;6.086;2023-12-20T03:29:19;5.60;;;3.03;;
35444;SDS011;21562;49.476;6.086;2023-12-20T03:31:44;9.38;;;3.58;;
35444;SDS011;21562;49.476;6.086;2023-12-20T03:34:10;5.82;;;2.90;;
35444;SDS011;21562;49.476;6.086;2023-12-20T03:36:36;10.50;;;2.88;;
35444;SDS011;21562;49.476;6.086;2023-12-20T03:39:02;9.32;;;2.78;;
35444;SDS011;21562;49.476;6.086;2023-12-20T03:41:28;12.98;;;3.35;;
35444;SDS011;21562;49.476;6.086;2023-12-20T03:43:54;9.20;;;2.60;;
35444;SDS011;21562;49.476;6.086;2023-12-20T03:46:20;7.00;;;2.47;;
35444;SDS011;21562;49.476;6.086;2023-12-20T03:48:46;9.05;;;2.40;;
35444;SDS011;21562;49.476;6.086;2023-12-20T03:51:11;9.95;;;2.50;;
35444;SDS011;21562;49.476;6.086;2023-12-20T03:53:37;7.22;;;2.28;;
35444;SDS011;21562;49.476;6.086;2023-12-20T03:56:04;10.23;;;2.20;;
35444;SDS011;21562;49.476;6.086;2023-12-20T03:58:30;14.80;;;2.40;;
35444;SDS011;21562;49.476;6.086;2023-12-20T04:00:56;5.53;;;1.55;;
35444;SDS011;21562;49.476;6.086;2023-12-20T04:03:21;8.57;;;1.73;;
35444;SDS011;21562;49.476;6.086;2023-12-20T04:05:47;7.38;;;1.80;;
35444;SDS011;21562;49.476;6.086;2023-12-20T04:08:12;8.23;;;1.45;;
35444;SDS011;21562;49.476;6.086;2023-12-20T04:10:38;8.07;;;1.50;;
35444;SDS011;21562;49.476;6.086;2023-12-20T04:13:04;8.70;;;1.40;;
35444;SDS011;21562;49.476;6.086;2023-12-20T04:15:30;10.23;;;1.40;;
35444;SDS011;21562;49.476;6.086;2023-12-20T04:17:55;8.00;;;2.40;;
35444;SDS011;21562;49.476;6.086;2023-12-20T04:20:21;6.50;;;1.42;;
35444;SDS011;21562;49.476;6.086;2023-12-20T04:22:47;7.55;;;1.98;;
35444;SDS011;21562;49.476;6.086;2023-12-20T04:25:12;15.27;;;2.17;;
35444;SDS011;21562;49.476;6.086;2023-12-20T04:27:38;7.28;;;1.60;;
35444;SDS011;21562;49.476;6.086;2023-12-20T04:30:07;12.38;;;1.95;;
35444;SDS011;21562;49.476;6.086;2023-12-20T04:32:33;8.90;;;1.83;;
35444;SDS011;21562;49.476;6.086;2023-12-20T04:34:58;5.18;;;1.40;;
35444;SDS011;21562;49.476;6.086;2023-12-20T04:37:24;8.95;;;1.73;;
35444;SDS011;21562;49.476;6.086;2023-12-20T04:39:50;8.02;;;1.30;;
35444;SDS011;21562;49.476;6.086;2023-12-20T04:42:15;6.80;;;1.35;;
35444;SDS011;21562;49.476;6.086;2023-12-20T04:44:41;5.50;;;1.70;;
35444;SDS011;21562;49.476;6.086;2023-12-20T04:47:08;4.30;;;1.33;;
35444;SDS011;21562;49.476;6.086;2023-12-20T04:49:34;7.32;;;2.58;;
35444;SDS011;21562;49.476;6.086;2023-12-20T04:52:00;7.40;;;1.45;;
35444;SDS011;21562;49.476;6.086;2023-12-20T04:54:25;6.65;;;1.40;;
35444;SDS011;21562;49.476;6.086;2023-12-20T04:56:51;14.02;;;1.45;;
35444;SDS011;21562;49.476;6.086;2023-12-20T04:59:17;13.35;;;1.85;;
35444;SDS011;21562;49.476;6.086;2023-12-20T05:01:42;6.78;;;1.35;;
35444;SDS011;21562;49.476;6.086;2023-12-20T05:04:08;3.72;;;1.15;;
35444;SDS011;21562;49.476;6.086;2023-12-20T05:06:34;9.35;;;1.63;;
35444;SDS011;21562;49.476;6.086;2023-12-20T05:08:59;11.52;;;2.55;;
35444;SDS011;21562;49.476;6.086;2023-12-20T05:11:25;11.15;;;2.03;;
35444;SDS011;21562;49.476;6.086;2023-12-20T05:13:50;8.32;;;1.88;;
35444;SDS011;21562;49.476;6.086;2023-12-20T05:16:16;10.15;;;2.67;;
35444;SDS011;21562;49.476;6.086;2023-12-20T05:18:43;12.02;;;2.08;;
35444;SDS011;21562;49.476;6.086;2023-12-20T05:21:09;11.13;;;1.80;;
35444;SDS011;21562;49.476;6.086;2023-12-20T05:23:35;12.95;;;2.10;;
35444;SDS011;21562;49.476;6.086;2023-12-20T05:26:01;9.15;;;2.28;;
35444;SDS011;21562;49.476;6.086;2023-12-20T05:28:26;5.65;;;1.75;;
35444;SDS011;21562;49.476;6.086;2023-12-20T05:30:52;11.68;;;2.42;;
35444;SDS011;21562;49.476;6.086;2023-12-20T05:33:18;9.18;;;2.17;;
35444;SDS011;21562;49.476;6.086;2023-12-20T05:35:44;15.18;;;2.38;;
35444;SDS011;21562;49.476;6.086;2023-12-20T05:38:10;11.85;;;3.17;;
35444;SDS011;21562;49.476;6.086;2023-12-20T05:40:36;9.35;;;2.83;;
35444;SDS011;21562;49.476;6.086;2023-12-20T05:43:02;6.30;;;2.67;;
35444;SDS011;21562;49.476;6.086;2023-12-20T05:45:28;9.32;;;2.70;;
35444;SDS011;21562;49.476;6.086;2023-12-20T05:47:54;7.55;;;2.35;;
35444;SDS011;21562;49.476;6.086;2023-12-20T05:50:20;11.93;;;2.78;;
35444;SDS011;21562;49.476;6.086;2023-12-20T05:52:46;12.85;;;3.20;;
35444;SDS011;21562;49.476;6.086;2023-12-20T05:55:12;28.63;;;4.35;;
35444;SDS011;21562;49.476;6.086;2023-12-20T05:57:37;12.75;;;3.85;;
35444;SDS011;21562;49.476;6.086;2023-12-20T06:00:03;18.15;;;3.17;;
35444;SDS011;21562;49.476;6.086;2023-12-20T06:02:29;10.75;;;3.42;;
35444;SDS011;21562;49.476;6.086;2023-12-20T06:04:55;14.10;;;3.45;;
35444;SDS011;21562;49.476;6.086;2023-12-20T06:07:20;21.20;;;3.90;;
35444;SDS011;21562;49.476;6.086;2023-12-20T06:09:46;13.93;;;4.03;;
35444;SDS011;21562;49.476;6.086;2023-12-20T06:12:12;20.77;;;4.20;;
35444;SDS011;21562;49.476;6.086;2023-12-20T06:14:37;14.98;;;4.03;;
35444;SDS011;21562;49.476;6.086;2023-12-20T06:17:03;7.30;;;3.17;;
35444;SDS011;21562;49.476;6.086;2023-12-20T06:19:29;25.35;;;4.20;;
35444;SDS011;21562;49.476;6.086;2023-12-20T06:21:54;21.23;;;4.70;;
35444;SDS011;21562;49.476;6.086;2023-12-20T06:24:20;15.70;;;4.32;;
35444;SDS011;21562;49.476;6.086;2023-12-20T06:26:46;23.83;;;4.82;;
35444;SDS011;21562;49.476;6.086;2023-12-20T06:29:12;12.15;;;4.50;;
35444;SDS011;21562;49.476;6.086;2023-12-20T06:31:38;12.85;;;4.05;;
35444;SDS011;21562;49.476;6.086;2023-12-20T06:34:03;21.73;;;4.50;;
35444;SDS011;21562;49.476;6.086;2023-12-20T06:36:29;20.08;;;4.72;;
35444;SDS011;21562;49.476;6.086;2023-12-20T06:38:55;9.70;;;4.70;;
35444;SDS011;21562;49.476;6.086;2023-12-20T06:41:20;21.23;;;5.35;;
35444;SDS011;21562;49.476;6.086;2023-12-20T06:43:46;10.88;;;4.03;;
35444;SDS011;21562;49.476;6.086;2023-12-20T06:46:12;16.60;;;5.30;;
35444;SDS011;21562;49.476;6.086;2023-12-20T06:48:38;14.48;;;4.75;;
35444;SDS011;21562;49.476;6.086;2023-12-20T06:51:05;17.42;;;4.70;;
35444;SDS011;21562;49.476;6.086;2023-12-20T06:53:30;19.55;;;4.93;;
35444;SDS011;21562;49.476;6.086;2023-12-20T06:55:56;18.85;;;4.60;;
35444;SDS011;21562;49.476;6.086;2023-12-20T06:58:22;20.52;;;5.30;;
35444;SDS011;21562;49.476;6.086;2023-12-20T07:00:48;18.65;;;5.63;;
35444;SDS011;21562;49.476;6.086;2023-12-20T07:03:16;16.42;;;4.20;;
35444;SDS011;21562;49.476;6.086;2023-12-20T07:05:42;19.42;;;5.85;;
35444;SDS011;21562;49.476;6.086;2023-12-20T07:08:08;17.15;;;4.80;;
35444;SDS011;21562;49.476;6.086;2023-12-20T07:10:35;16.60;;;4.43;;
35444;SDS011;21562;49.476;6.086;2023-12-20T07:13:01;22.15;;;6.72;;
35444;SDS011;21562;49.476;6.086;2023-12-20T07:15:27;17.63;;;5.38;;
35444;SDS011;21562;49.476;6.086;2023-12-20T07:17:54;24.75;;;4.82;;
35444;SDS011;21562;49.476;6.086;2023-12-20T07:20:20;17.42;;;4.22;;
35444;SDS011;21562;49.476;6.086;2023-12-20T07:22:45;9.43;;;4.20;;
35444;SDS011;21562;49.476;6.086;2023-12-20T07:25:11;19.02;;;4.88;;
35444;SDS011;21562;49.476;6.086;2023-12-20T07:27:37;21.10;;;4.30;;
35444;SDS011;21562;49.476;6.086;2023-12-20T07:30:02;17.40;;;4.47;;
35444;SDS011;21562;49.476;6.086;2023-12-20T07:32:28;19.10;;;5.05;;
35444;SDS011;21562;49.476;6.086;2023-12-20T07:34:54;14.80;;;4.32;;
35444;SDS011;21562;49.476;6.086;2023-12-20T07:37:20;17.42;;;5.03;;
35444;SDS011;21562;49.476;6.086;2023-12-20T07:39:46;17.80;;;4.57;;
35444;SDS011;21562;49.476;6.086;2023-12-20T07:42:11;17.98;;;4.70;;
35444;SDS011;21562;49.476;6.086;2023-12-20T07:44:37;22.10;;;5.10;;
35444;SDS011;21562;49.476;6.086;2023-12-20T07:47:03;27.02;;;4.35;;
35444;SDS011;21562;49.476;6.086;2023-12-20T07:49:30;22.50;;;4.88;;
35444;SDS011;21562;49.476;6.086;2023-12-20T07:51:56;25.75;;;6.82;;
35444;SDS011;21562;49.476;6.086;2023-12-20T07:54:21;13.30;;;4.20;;
35444;SDS011;21562;49.476;6.086;2023-12-20T07:56:47;31.73;;;5.63;;
35444;SDS011;21562;49.476;6.086;2023-12-20T07:59:13;19.15;;;5.63;;
35444;SDS011;21562;49.476;6.086;2023-12-20T08:01:39;25.58;;;5.85;;
35444;SDS011;21562;49.476;6.086;2023-12-20T08:04:05;18.02;;;5.35;;
35444;SDS011;21562;49.476;6.086;2023-12-20T08:06:31;19.10;;;5.10;;
35444;SDS011;21562;49.476;6.086;2023-12-20T08:08:56;21.75;;;6.88;;
35444;SDS011;21562;49.476;6.086;2023-12-20T08:11:22;27.73;;;5.65;;
35444;SDS011;21562;49.476;6.086;2023-12-20T08:13:48;23.85;;;5.93;;
35444;SDS011;21562;49.476;6.086;2023-12-20T08:16:13;21.40;;;5.55;;
35444;SDS011;21562;49.476;6.086;2023-12-20T08:18:40;22.98;;;5.50;;
35444;SDS011;21562;49.476;6.086;2023-12-20T08:21:06;24.17;;;5.85;;
35444;SDS011;21562;49.476;6.086;2023-12-20T08:23:36;26.45;;;6.45;;
35444;SDS011;21562;49.476;6.086;2023-12-20T08:26:05;35.03;;;7.32;;
35444;SDS011;21562;49.476;6.086;2023-12-20T08:28:31;22.80;;;5.28;;
35444;SDS011;21562;49.476;6.086;2023-12-20T08:30:57;28.17;;;5.63;;
35444;SDS011;21562;49.476;6.086;2023-12-20T08:33:23;19.02;;;5.20;;
35444;SDS011;21562;49.476;6.086;2023-12-20T08:35:49;20.80;;;4.65;;
35444;SDS011;21562;49.476;6.086;2023-12-20T08:38:15;25.08;;;6.40;;
35444;SDS011;21562;49.476;6.086;2023-12-20T08:40:41;13.43;;;5.32;;
35444;SDS011;21562;49.476;6.086;2023-12-20T08:43:07;24.52;;;6.82;;
35444;SDS011;21562;49.476;6.086;2023-12-20T08:45:33;20.95;;;6.20;;
35444;SDS011;21562;49.476;6.086;2023-12-20T08:47:59;43.58;;;7.63;;
35444;SDS011;21562;49.476;6.086;2023-12-20T08:50:25;19.05;;;4.90;;
35444;SDS011;21562;49.476;6.086;2023-12-20T08:52:51;15.57;;;5.38;;
35444;SDS011;21562;49.476;6.086;2023-12-20T08:55:16;17.13;;;3.90;;
35444;SDS011;21562;49.476;6.086;2023-12-20T08:57:43;14.35;;;4.63;;
35444;SDS011;21562;49.476;6.086;2023-12-20T09:00:09;19.80;;;4.13;;
35444;SDS011;21562;49.476;6.086;2023-12-20T09:02:35;20.15;;;4.80;;
35444;SDS011;21562;49.476;6.086;2023-12-20T09:05:02;13.95;;;3.80;;
35444;SDS011;21562;49.476;6.086;2023-12-20T09:07:28;17.13;;;3.35;;
35444;SDS011;21562;49.476;6.086;2023-12-20T09:09:56;8.15;;;2.70;;
35444;SDS011;21562;49.476;6.086;2023-12-20T09:12:22;13.95;;;3.75;;
35444;SDS011;21562;49.476;6.086;2023-12-20T09:14:48;16.10;;;3.20;;
35444;SDS011;21562;49.476;6.086;2023-12-20T09:17:15;13.38;;;3.30;;
35444;SDS011;21562;49.476;6.086;2023-12-20T09:19:42;8.90;;;3.40;;
35444;SDS011;21562;49.476;6.086;2023-12-20T09:22:11;13.57;;;4.03;;
35444;SDS011;21562;49.476;6.086;2023-12-20T09:24:37;23.58;;;4.45;;
35444;SDS011;21562;49.476;6.086;2023-12-20T09:27:04;11.98;;;3.83;;
35444;SDS011;21562;49.476;6.086;2023-12-20T09:29:30;8.45;;;2.90;;
35444;SDS011;21562;49.476;6.086;2023-12-20T09:31:56;15.32;;;4.40;;
35444;SDS011;21562;49.476;6.086;2023-12-20T09:34:22;17.48;;;3.60;;
35444;SDS011;21562;49.476;6.086;2023-12-20T09:36:48;9.60;;;3.83;;
35444;SDS011;21562;49.476;6.086;2023-12-20T09:39:14;15.85;;;3.75;;
35444;SDS011;21562;49.476;6.086;2023-12-20T09:41:44;14.40;;;3.33;;
35444;SDS011;21562;49.476;6.086;2023-12-20T09:44:16;13.88;;;3.00;;
35444;SDS011;21562;49.476;6.086;2023-12-20T09:46:45;18.55;;;3.55;;
35444;SDS011;21562;49.476;6.086;2023-12-20T09:49:14;12.52;;;3.35;;
35444;SDS011;21562;49.476;6.086;2023-12-20T09:51:43;15.73;;;3.80;;
35444;SDS011;21562;49.476;6.086;2023-12-20T09:54:11;18.23;;;4.80;;
35444;SDS011;21562;49.476;6.086;2023-12-20T09:56:41;15.77;;;4.15;;
35444;SDS011;21562;49.476;6.086;2023-12-20T09:59:07;14.38;;;3.30;;
35444;SDS011;21562;49.476;6.086;2023-12-20T10:01:33;14.55;;;3.45;;
35444;SDS011;21562;49.476;6.086;2023-12-20T10:04:00;17.00;;;3.42;;
35444;SDS011;21562;49.476;6.086;2023-12-20T10:06:28;11.02;;;3.47;;
35444;SDS011;21562;49.476;6.086;2023-12-20T10:08:54;16.20;;;3.38;;
35444;SDS011;21562;49.476;6.086;2023-12-20T10:11:20;11.32;;;3.08;;
35444;SDS011;21562;49.476;6.086;2023-12-20T10:13:47;13.35;;;3.22;;
35444;SDS011;21562;49.476;6.086;2023-12-20T10:16:13;13.90;;;3.03;;
35444;SDS011;21562;49.476;6.086;2023-12-20T10:18:39;12.68;;;2.85;;
35444;SDS011;21562;49.476;6.086;2023-12-20T10:21:05;13.40;;;3.22;;
35444;SDS011;21562;49.476;6.086;2023-12-20T10:23:32;12.00;;;2.70;;
35444;SDS011;21562;49.476;6.086;2023-12-20T10:25:58;20.60;;;2.67;;
35444;SDS011;21562;49.476;6.086;2023-12-20T10:28:24;13.15;;;2.90;;
35444;SDS011;21562;49.476;6.086;2023-12-20T10:30:55;15.40;;;2.75;;
35444;SDS011;21562;49.476;6.086;2023-12-20T10:33:24;13.07;;;2.75;;
35444;SDS011;21562;49.476;6.086;2023-12-20T10:35:59;10.00;;;2.35;;
35444;SDS011;21562;49.476;6.086;2023-12-20T10:38:25;17.05;;;3.30;;
35444;SDS011;21562;49.476;6.086;2023-12-20T10:40:53;22.85;;;3.70;;
35444;SDS011;21562;49.476;6.086;2023-12-20T10:43:23;20.45;;;3.20;;
35444;SDS011;21562;49.476;6.086;2023-12-20T10:45:51;11.13;;;2.92;;
35444;SDS011;21562;49.476;6.086;2023-12-20T10:48:17;16.88;;;3.63;;
35444;SDS011;21562;49.476;6.086;2023-12-20T10:50:43;28.15;;;3.47;;
35444;SDS011;21562;49.476;6.086;2023-12-20T10:53:10;20.45;;;3.10;;
35444;SDS011;21562;49.476;6.086;2023-12-20T10:55:37;18.60;;;3.47;;
35444;SDS011;21562;49.476;6.086;2023-12-20T10:58:09;14.95;;;2.92;;
35444;SDS011;21562;49.476;6.086;2023-12-20T11:00:36;17.48;;;3.35;;
35444;SDS011;21562;49.476;6.086;2023-12-20T11:03:06;16.17;;;2.75;;
35444;SDS011;21562;49.476;6.086;2023-12-20T11:05:58;14.10;;;2.55;;
35444;SDS011;21562;49.476;6.086;2023-12-20T11:13:36;18.60;;;2.70;;
35444;SDS011;21562;49.476;6.086;2023-12-20T11:16:09;17.65;;;3.72;;
35444;SDS011;21562;49.476;6.086;2023-12-20T11:18:35;16.17;;;2.80;;
35444;SDS011;21562;49.476;6.086;2023-12-20T11:21:01;21.30;;;3.50;;
35444;SDS011;21562;49.476;6.086;2023-12-20T11:23:29;13.40;;;2.70;;
35444;SDS011;21562;49.476;6.086;2023-12-20T11:25:56;13.98;;;2.80;;
35444;SDS011;21562;49.476;6.086;2023-12-20T11:28:25;20.88;;;3.45;;
35444;SDS011;21562;49.476;6.086;2023-12-20T11:30:52;15.30;;;3.33;;
35444;SDS011;21562;49.476;6.086;2023-12-20T11:33:22;18.98;;;2.45;;
35444;SDS011;21562;49.476;6.086;2023-12-20T11:35:57;19.02;;;3.88;;
35444;SDS011;21562;49.476;6.086;2023-12-20T11:38:25;19.70;;;3.33;;
35444;SDS011;21562;49.476;6.086;2023-12-20T11:40:51;13.15;;;2.95;;
35444;SDS011;21562;49.476;6.086;2023-12-20T11:43:36;22.75;;;3.08;;
35444;SDS011;21562;49.476;6.086;2023-12-20T11:46:06;14.45;;;3.10;;
35444;SDS011;21562;49.476;6.086;2023-12-20T11:48:37;17.80;;;3.20;;
35444;SDS011;21562;49.476;6.086;2023-12-20T11:51:11;20.58;;;2.72;;
35444;SDS011;21562;49.476;6.086;2023-12-20T11:53:37;20.77;;;3.55;;
35444;SDS011;21562;49.476;6.086;2023-12-20T11:56:05;20.50;;;3.03;;
35444;SDS011;21562;49.476;6.086;2023-12-20T11:58:32;13.05;;;2.72;;
35444;SDS011;21562;49.476;6.086;2023-12-20T12:00:58;13.95;;;2.30;;
35444;SDS011;21562;49.476;6.086;2023-12-20T12:03:24;11.18;;;2.92;;
35444;SDS011;21562;49.476;6.086;2023-12-20T12:05:50;9.38;;;2.47;;
35444;SDS011;21562;49.476;6.086;2023-12-20T12:08:16;14.52;;;2.75;;
35444;SDS011;21562;49.476;6.086;2023-12-20T12:10:42;24.10;;;4.65;;
35444;SDS011;21562;49.476;6.086;2023-12-20T12:13:11;24.40;;;4.10;;
35444;SDS011;21562;49.476;6.086;2023-12-20T12:15:39;14.18;;;2.95;;
35444;SDS011;21562;49.476;6.086;2023-12-20T12:18:07;18.30;;;3.55;;
35444;SDS011;21562;49.476;6.086;2023-12-20T12:20:33;18.88;;;3.35;;
35444;SDS011;21562;49.476;6.086;2023-12-20T12:23:00;19.88;;;3.08;;
35444;SDS011;21562;49.476;6.086;2023-12-20T12:25:26;15.77;;;3.15;;
35444;SDS011;21562;49.476;6.086;2023-12-20T12:27:53;17.77;;;2.80;;
35444;SDS011;21562;49.476;6.086;2023-12-20T12:30:20;18.05;;;3.03;;
35444;SDS011;21562;49.476;6.086;2023-12-20T12:32:46;18.00;;;3.30;;
35444;SDS011;21562;49.476;6.086;2023-12-20T12:35:13;18.17;;;3.85;;
35444;SDS011;21562;49.476;6.086;2023-12-20T12:37:39;17.15;;;4.05;;
35444;SDS011;21562;49.476;6.086;2023-12-20T12:40:06;15.57;;;3.70;;
35444;SDS011;21562;49.476;6.086;2023-12-20T12:42:36;21.77;;;3.78;;
35444;SDS011;21562;49.476;6.086;2023-12-20T12:45:03;19.88;;;5.40;;
35444;SDS011;21562;49.476;6.086;2023-12-20T12:47:29;24.02;;;3.42;;
35444;SDS011;21562;49.476;6.086;2023-12-20T12:49:55;18.75;;;3.58;;
35444;SDS011;21562;49.476;6.086;2023-12-20T12:52:21;24.02;;;5.20;;
35444;SDS011;21562;49.476;6.086;2023-12-20T12:54:47;18.33;;;3.13;;
35444;SDS011;21562;49.476;6.086;2023-12-20T12:57:14;11.43;;;3.83;;
35444;SDS011;21562;49.476;6.086;2023-12-20T12:59:43;19.02;;;3.45;;
35444;SDS011;21562;49.476;6.086;2023-12-20T13:02:10;15.20;;;3.65;;
35444;SDS011;21562;49.476;6.086;2023-12-20T13:04:40;16.23;;;3.42;;
35444;SDS011;21562;49.476;6.086;2023-12-20T13:07:06;24.73;;;4.47;;
35444;SDS011;21562;49.476;6.086;2023-12-20T13:09:33;18.70;;;4.07;;
35444;SDS011;21562;49.476;6.086;2023-12-20T13:11:59;26.42;;;4.55;;
35444;SDS011;21562;49.476;6.086;2023-12-20T13:14:28;23.10;;;3.72;;
35444;SDS011;21562;49.476;6.086;2023-12-20T13:16:54;23.85;;;3.92;;
35444;SDS011;21562;49.476;6.086;2023-12-20T13:19:21;18.48;;;5.32;;
35444;SDS011;21562;49.476;6.086;2023-12-20T13:21:46;13.95;;;3.13;;
35444;SDS011;21562;49.476;6.086;2023-12-20T13:24:12;22.15;;;3.83;;
35444;SDS011;21562;49.476;6.086;2023-12-20T13:26:37;17.33;;;3.70;;
35444;SDS011;21562;49.476;6.086;2023-12-20T13:29:03;20.73;;;3.53;;
35444;SDS011;21562;49.476;6.086;2023-12-20T13:31:29;14.70;;;3.20;;
35444;SDS011;21562;49.476;6.086;2023-12-20T13:33:55;18.77;;;3.17;;
35444;SDS011;21562;49.476;6.086;2023-12-20T13:36:20;24.15;;;3.30;;
35444;SDS011;21562;49.476;6.086;2023-12-20T13:38:46;21.77;;;3.67;;
35444;SDS011;21562;49.476;6.086;2023-12-20T13:41:12;17.17;;;3.70;;
35444;SDS011;21562;49.476;6.086;2023-12-20T13:43:37;23.38;;;3.17;;
35444;SDS011;21562;49.476;6.086;2023-12-20T13:46:03;17.48;;;3.22;;
35444;SDS011;21562;49.476;6.086;2023-12-20T13:48:29;18.75;;;3.17;;
35444;SDS011;21562;49.476;6.086;2023-12-20T13:50:54;20.38;;;5.80;;
35444;SDS011;21562;49.476;6.086;2023-12-20T13:53:20;26.85;;;4.53;;
35444;SDS011;21562;49.476;6.086;2023-12-20T13:55:46;15.73;;;3.95;;
35444;SDS011;21562;49.476;6.086;2023-12-20T13:58:11;11.93;;;3.63;;
35444;SDS011;21562;49.476;6.086;2023-12-20T14:00:37;27.17;;;4.30;;
35444;SDS011;21562;49.476;6.086;2023-12-20T14:03:03;20.30;;;3.63;;
35444;SDS011;21562;49.476;6.086;2023-12-20T14:05:29;19.08;;;4.30;;
35444;SDS011;21562;49.476;6.086;2023-12-20T14:07:55;19.73;;;3.25;;
35444;SDS011;21562;49.476;6.086;2023-12-20T14:10:24;18.83;;;3.38;;
35444;SDS011;21562;49.476;6.086;2023-12-20T14:12:51;17.33;;;3.17;;
35444;SDS011;21562;49.476;6.086;2023-12-20T14:15:18;18.13;;;3.33;;
35444;SDS011;21562;49.476;6.086;2023-12-20T14:17:43;18.40;;;3.00;;
35444;SDS011;21562;49.476;6.086;2023-12-20T14:20:09;23.52;;;3.05;;
35444;SDS011;21562;49.476;6.086;2023-12-20T14:22:38;24.42;;;3.80;;
35444;SDS011;21562;49.476;6.086;2023-12-20T14:25:03;20.60;;;3.20;;
35444;SDS011;21562;49.476;6.086;2023-12-20T14:27:31;28.10;;;4.32;;
35444;SDS011;21562;49.476;6.086;2023-12-20T14:29:57;17.77;;;3.72;;
35444;SDS011;21562;49.476;6.086;2023-12-20T14:32:23;14.85;;;3.00;;
35444;SDS011;21562;49.476;6.086;2023-12-20T14:34:51;17.42;;;3.67;;
35444;SDS011;21562;49.476;6.086;2023-12-20T14:37:17;26.17;;;3.25;;